createdAt,value
2022-12-05T00:00:38.162Z,9.747293
2022-12-05T00:01:38.156Z,9.747134
2022-12-05T00:02:38.171Z,9.747168
2022-12-05T00:03:38.119Z,9.747290
2022-12-05T00:04:38.120Z,9.747369
2022-12-05T00:05:38.105Z,9.747282
2022-12-05T00:06:38.079Z,9.747230
2022-12-05T00:07:38.106Z,9.747017
2022-12-05T00:08:38.065Z,9.747214
2022-12-05T00:09:38.041Z,9.747121
2022-12-05T00:10:38.105Z,9.747437
2022-12-05T00:11:38.024Z,9.747256
2022-12-05T00:12:38.027Z,9.747178
2022-12-05T00:13:38.005Z,9.747173
2022-12-05T00:14:38.087Z,9.747228
2022-12-05T00:15:39.036Z,9.747252
2022-12-05T00:16:38.076Z,9.747161
2022-12-05T00:17:37.984Z,9.747179
2022-12-05T00:18:38.004Z,9.747124
2022-12-05T00:19:37.980Z,9.747131
2022-12-05T00:20:38.000Z,9.747351
2022-12-05T00:21:37.965Z,9.747388
2022-12-05T00:22:37.964Z,9.747246
2022-12-05T00:23:37.954Z,9.747252
2022-12-05T00:24:37.927Z,9.747327
2022-12-05T00:25:37.972Z,9.747146
2022-12-05T00:26:37.918Z,9.747187
2022-12-05T00:27:37.912Z,9.747213
2022-12-05T00:28:37.922Z,9.747314
2022-12-05T00:29:37.895Z,9.747313
2022-12-05T00:30:37.907Z,9.747258
2022-12-05T00:31:37.972Z,9.747331
2022-12-05T00:32:37.875Z,9.747460
2022-12-05T00:33:37.868Z,9.747350
2022-12-05T00:34:37.872Z,9.747339
2022-12-05T00:35:37.942Z,9.747328
2022-12-05T00:36:37.848Z,9.747297
2022-12-05T00:37:37.837Z,9.747312
2022-12-05T00:38:37.837Z,9.747267
2022-12-05T00:39:37.838Z,9.747354
2022-12-05T00:40:37.867Z,9.747330
2022-12-05T00:42:12.151Z,9.747256
2022-12-05T00:42:37.790Z,9.747350
2022-12-05T00:43:37.787Z,9.747356
2022-12-05T00:44:37.774Z,9.747334
2022-12-05T00:45:37.843Z,9.747403
2022-12-05T00:46:37.851Z,9.747293
2022-12-05T00:47:37.749Z,9.747368
2022-12-05T00:48:37.752Z,9.747326
2022-12-05T00:49:37.752Z,9.747300
2022-12-05T00:50:37.763Z,9.747547
2022-12-05T00:51:37.719Z,9.747334
2022-12-05T00:52:37.714Z,9.747237
2022-12-05T00:53:37.723Z,9.747460
2022-12-05T00:54:38.709Z,9.747300
2022-12-05T00:55:37.709Z,9.747413
2022-12-05T00:56:38.680Z,9.747355
2022-12-05T00:57:37.680Z,9.747575
2022-12-05T00:58:37.721Z,9.747452
2022-12-05T00:59:37.655Z,9.747265
2022-12-05T01:00:37.686Z,9.747435
2022-12-05T01:01:37.759Z,9.747402
2022-12-05T01:02:37.694Z,9.747426
2022-12-05T01:03:37.690Z,9.747280
2022-12-05T01:04:37.630Z,9.747334
2022-12-05T01:05:37.643Z,9.747376
2022-12-05T01:06:37.615Z,9.747378
2022-12-05T01:07:37.654Z,9.747286
2022-12-05T01:08:37.596Z,9.747347
2022-12-05T01:09:37.590Z,9.747437
2022-12-05T01:10:37.619Z,9.747461
2022-12-05T01:11:41.199Z,9.747484
2022-12-05T01:12:38.566Z,9.747480
2022-12-05T01:13:37.556Z,9.747539
2022-12-05T01:14:37.563Z,9.747370
2022-12-05T01:15:37.548Z,9.747390
2022-12-05T01:16:37.657Z,9.747253
2022-12-05T01:17:37.531Z,9.747328
2022-12-05T01:18:37.528Z,9.747362
2022-12-05T01:19:37.516Z,9.747391
2022-12-05T01:20:37.516Z,9.747398
2022-12-05T01:21:37.542Z,9.747420
2022-12-05T01:22:37.486Z,9.747326
2022-12-05T01:23:37.479Z,9.747302
2022-12-05T01:24:37.483Z,9.747382
2022-12-05T01:25:37.466Z,9.747391
2022-12-05T01:26:37.493Z,9.747416
2022-12-05T01:27:37.455Z,9.747324
2022-12-05T01:28:37.633Z,9.747346
2022-12-05T01:29:37.435Z,9.747371
2022-12-05T01:30:37.432Z,9.747460
2022-12-05T01:31:37.500Z,9.747375
2022-12-05T01:32:37.408Z,9.747271
2022-12-05T01:33:37.401Z,9.747256
2022-12-05T01:34:37.408Z,9.747273
2022-12-05T01:35:37.384Z,9.747306
2022-12-05T01:36:37.412Z,9.747388
2022-12-05T01:37:37.378Z,9.747400
2022-12-05T01:38:37.375Z,9.747396
2022-12-05T01:39:37.365Z,9.747377
2022-12-05T01:40:37.354Z,9.747402
2022-12-05T01:41:37.376Z,9.747347
2022-12-05T01:42:37.334Z,9.747447
2022-12-05T01:43:37.327Z,9.747520
2022-12-05T01:44:37.325Z,9.747416
2022-12-05T01:45:37.360Z,9.747267
2022-12-05T01:46:37.335Z,9.747202
2022-12-05T01:47:37.292Z,9.747358
2022-12-05T01:48:37.294Z,9.747267
2022-12-05T01:49:37.279Z,9.747145
2022-12-05T01:50:37.278Z,9.747232
2022-12-05T01:51:37.296Z,9.747383
2022-12-05T01:52:37.265Z,9.747483
2022-12-05T01:53:37.257Z,9.747382
2022-12-05T01:54:37.275Z,9.747441
2022-12-05T01:55:37.235Z,9.747355
2022-12-05T01:56:37.261Z,9.747366
2022-12-05T01:57:37.226Z,9.747262
2022-12-05T01:58:37.216Z,9.747330
2022-12-05T01:59:37.210Z,9.747435
2022-12-05T02:00:37.207Z,9.747279
2022-12-05T02:01:37.294Z,9.747268
2022-12-05T02:02:37.239Z,9.747332
2022-12-05T02:03:37.183Z,9.747274
2022-12-05T02:04:37.184Z,9.747299
2022-12-05T02:05:37.159Z,9.747280
2022-12-05T02:06:37.182Z,9.747247
2022-12-05T02:07:37.193Z,9.747307
2022-12-05T02:08:37.164Z,9.747425
2022-12-05T02:09:37.131Z,9.747568
2022-12-05T02:10:37.121Z,9.747518
2022-12-05T02:11:37.146Z,9.747303
2022-12-05T02:12:38.945Z,9.747312
2022-12-05T02:13:38.105Z,9.747407
2022-12-05T02:14:37.092Z,9.747361
2022-12-05T02:15:37.095Z,9.747342
2022-12-05T02:16:37.175Z,9.747281
2022-12-05T02:17:37.070Z,9.747235
2022-12-05T02:18:37.061Z,9.747366
2022-12-05T02:19:37.055Z,9.747404
2022-12-05T02:20:37.070Z,9.747351
2022-12-05T02:21:37.078Z,9.747358
2022-12-05T02:22:37.040Z,9.747342
2022-12-05T02:23:37.033Z,9.747394
2022-12-05T02:24:37.023Z,9.747332
2022-12-05T02:25:37.014Z,9.747249
2022-12-05T02:26:37.041Z,9.747237
2022-12-05T02:27:37.002Z,9.747322
2022-12-05T02:28:37.004Z,9.747346
2022-12-05T02:29:36.983Z,9.747283
2022-12-05T02:30:36.981Z,9.747341
2022-12-05T02:31:37.088Z,9.747325
2022-12-05T02:32:36.970Z,9.747397
2022-12-05T02:33:36.957Z,9.747356
2022-12-05T02:34:36.949Z,9.747356
2022-12-05T02:35:36.944Z,9.747374
2022-12-05T02:36:36.966Z,9.747333
2022-12-05T02:37:36.931Z,9.747371
2022-12-05T02:38:36.919Z,9.747358
2022-12-05T02:39:36.935Z,9.747316
2022-12-05T02:40:36.908Z,9.747362
2022-12-05T02:41:36.921Z,9.747354
2022-12-05T02:42:36.901Z,9.747306
2022-12-05T02:43:36.880Z,9.747320
2022-12-05T02:44:36.877Z,9.747313
2022-12-05T02:45:36.943Z,9.747362
2022-12-05T02:46:36.896Z,9.747299
2022-12-05T02:47:36.853Z,9.747318
2022-12-05T02:48:36.865Z,9.747280
2022-12-05T02:49:36.856Z,9.747348
2022-12-05T02:50:36.827Z,9.747327
2022-12-05T02:51:36.851Z,9.747270
2022-12-05T02:52:36.816Z,9.747215
2022-12-05T02:53:36.805Z,9.747308
2022-12-05T02:54:36.814Z,9.747293
2022-12-05T02:55:36.796Z,9.747365
2022-12-05T02:56:36.818Z,9.747353
2022-12-05T02:57:36.775Z,9.747289
2022-12-05T02:58:36.771Z,9.747360
2022-12-05T02:59:36.760Z,9.747301
2022-12-05T03:00:36.751Z,9.747149
2022-12-05T03:01:36.845Z,9.747358
2022-12-05T03:02:36.738Z,9.747326
2022-12-05T03:03:36.745Z,9.747369
2022-12-05T03:04:36.771Z,9.747297
2022-12-05T03:05:36.724Z,9.747353
2022-12-05T03:06:36.713Z,9.747325
2022-12-05T03:07:36.775Z,9.747398
2022-12-05T03:08:36.693Z,9.747385
2022-12-05T03:09:36.684Z,9.747238
2022-12-05T03:10:36.679Z,9.747266
2022-12-05T03:11:36.670Z,9.747307
2022-12-05T03:12:36.698Z,9.747416
2022-12-05T03:13:36.657Z,9.747382
2022-12-05T03:14:36.645Z,9.747355
2022-12-05T03:15:36.635Z,9.747351
2022-12-05T03:16:36.642Z,9.747351
2022-12-05T03:17:36.654Z,9.747276
2022-12-05T03:18:36.620Z,9.747259
2022-12-05T03:19:36.607Z,9.747334
2022-12-05T03:20:36.596Z,9.747370
2022-12-05T03:21:36.606Z,9.747350
2022-12-05T03:22:36.608Z,9.747288
2022-12-05T03:23:36.573Z,9.747274
2022-12-05T03:24:36.564Z,9.747322
2022-12-05T03:25:36.565Z,9.747293
2022-12-05T03:26:36.557Z,9.747416
2022-12-05T03:27:36.587Z,9.747349
2022-12-05T03:28:36.534Z,9.747293
2022-12-05T03:29:36.531Z,9.747296
2022-12-05T03:30:36.592Z,9.747213
2022-12-05T03:31:36.509Z,9.747207
2022-12-05T03:32:36.530Z,9.747275
2022-12-05T03:33:36.508Z,9.747479
2022-12-05T03:34:36.486Z,9.747378
2022-12-05T03:35:36.481Z,9.747250
2022-12-05T03:36:36.478Z,9.747334
2022-12-05T03:37:36.492Z,9.747590
2022-12-05T03:38:36.458Z,9.747526
2022-12-05T03:39:36.455Z,9.747371
2022-12-05T03:40:36.441Z,9.747344
2022-12-05T03:41:36.439Z,9.747344
2022-12-05T03:42:36.457Z,9.747289
2022-12-05T03:43:36.417Z,9.747243
2022-12-05T03:44:36.414Z,9.747436
2022-12-05T03:45:36.455Z,9.747282
2022-12-05T03:46:36.446Z,9.747447
2022-12-05T03:47:36.417Z,9.747496
2022-12-05T03:48:36.374Z,9.747347
2022-12-05T03:49:36.386Z,9.747151
2022-12-05T03:50:36.372Z,9.747255
2022-12-05T03:51:36.356Z,9.747263
2022-12-05T03:52:56.857Z,9.747265
2022-12-05T03:53:38.338Z,9.747176
2022-12-05T03:54:36.326Z,9.747169
2022-12-05T03:55:36.321Z,9.747066
2022-12-05T03:56:36.323Z,9.747236
2022-12-05T03:57:36.308Z,9.747314
2022-12-05T03:58:36.340Z,9.747401
2022-12-05T03:59:36.298Z,9.747529
2022-12-05T04:00:36.288Z,9.747353
2022-12-05T04:01:36.333Z,9.747480
2022-12-05T04:02:36.271Z,9.747682
2022-12-05T04:03:36.313Z,9.747541
2022-12-05T04:04:36.283Z,9.747735
2022-12-05T04:05:36.257Z,9.747552
2022-12-05T04:06:36.236Z,9.747480
2022-12-05T04:07:36.289Z,9.747310
2022-12-05T04:08:36.253Z,9.747329
2022-12-05T04:09:36.218Z,9.747361
2022-12-05T04:10:36.201Z,9.747470
2022-12-05T04:11:36.202Z,9.747579
2022-12-05T04:12:36.187Z,9.747571
2022-12-05T04:13:36.262Z,9.747504
2022-12-05T04:14:36.172Z,9.747306
2022-12-05T04:15:36.224Z,9.747403
2022-12-05T04:16:36.165Z,9.747291
2022-12-05T04:17:36.151Z,9.747738
2022-12-05T04:18:36.187Z,9.747633
2022-12-05T04:19:36.133Z,9.747458
2022-12-05T04:20:36.125Z,9.747253
2022-12-05T04:21:36.122Z,9.747132
2022-12-05T04:22:36.110Z,9.747167
2022-12-05T04:23:36.131Z,9.747109
2022-12-05T04:24:36.106Z,9.747140
2022-12-05T04:25:36.094Z,9.747083
2022-12-05T04:26:36.083Z,9.747009
2022-12-05T04:27:36.075Z,9.746899
2022-12-05T04:28:36.104Z,9.747293
2022-12-05T04:29:36.071Z,9.747272
2022-12-05T04:30:36.055Z,9.747438
2022-12-05T04:31:36.075Z,9.747373
2022-12-05T04:32:36.040Z,9.747415
2022-12-05T04:33:36.070Z,9.747313
2022-12-05T04:34:36.050Z,9.747375
2022-12-05T04:35:36.038Z,9.747350
2022-12-05T04:36:36.017Z,9.747312
2022-12-05T04:37:36.016Z,9.747298
2022-12-05T04:38:35.999Z,9.747318
2022-12-05T04:39:36.022Z,9.747386
2022-12-05T04:40:35.987Z,9.747445
2022-12-05T04:41:35.976Z,9.747603
2022-12-05T04:42:35.972Z,9.747372
2022-12-05T04:43:35.982Z,9.747318
2022-12-05T04:44:35.981Z,9.747345
2022-12-05T04:45:35.948Z,9.747313
2022-12-05T04:46:35.971Z,9.747274
2022-12-05T04:47:35.935Z,9.747221
2022-12-05T04:48:35.923Z,9.747409
2022-12-05T04:49:35.949Z,9.747345
2022-12-05T04:50:35.914Z,9.747353
2022-12-05T04:51:35.907Z,9.747170
2022-12-05T04:52:35.892Z,9.747364
2022-12-05T04:53:35.887Z,9.747348
2022-12-05T04:54:35.907Z,9.747466
2022-12-05T04:55:35.876Z,9.747334
2022-12-05T04:56:35.861Z,9.747356
2022-12-05T04:57:35.856Z,9.747346
2022-12-05T04:58:35.849Z,9.747296
2022-12-05T04:59:35.868Z,9.747170
2022-12-05T05:00:35.828Z,9.747308
2022-12-05T05:01:35.949Z,9.747288
2022-12-05T05:02:35.857Z,9.747046
2022-12-05T05:03:35.812Z,9.747294
2022-12-05T05:04:35.828Z,9.747239
2022-12-05T05:05:35.793Z,9.747260
2022-12-05T05:06:35.786Z,9.747213
2022-12-05T05:07:35.823Z,9.747313
2022-12-05T05:08:36.791Z,9.747062
2022-12-05T05:09:35.788Z,9.747028
2022-12-05T05:10:35.754Z,9.747226
2022-12-05T05:11:35.757Z,9.747324
2022-12-05T05:12:35.747Z,9.747340
2022-12-05T05:13:35.732Z,9.747299
2022-12-05T05:14:35.754Z,9.747336
2022-12-05T05:15:35.760Z,9.747376
2022-12-05T05:16:35.779Z,9.747285
2022-12-05T05:17:35.708Z,9.747355
2022-12-05T05:18:35.703Z,9.747339
2022-12-05T05:19:35.720Z,9.747184
2022-12-05T05:20:35.683Z,9.747364
2022-12-05T05:21:35.680Z,9.747416
2022-12-05T05:22:35.661Z,9.747329
2022-12-05T05:23:35.659Z,9.747387
2022-12-05T05:24:35.684Z,9.747336
2022-12-05T05:25:35.640Z,9.747425
2022-12-05T05:26:35.682Z,9.747432
2022-12-05T05:27:35.631Z,9.747384
2022-12-05T05:28:35.628Z,9.747484
2022-12-05T05:29:35.661Z,9.747467
2022-12-05T05:30:35.610Z,9.747513
2022-12-05T05:31:35.627Z,9.747448
2022-12-05T05:32:35.600Z,9.747446
2022-12-05T05:33:35.591Z,9.747452
2022-12-05T05:34:35.606Z,9.747407
2022-12-05T05:35:35.574Z,9.747416
2022-12-05T05:36:35.562Z,9.747450
2022-12-05T05:37:35.561Z,9.747391
2022-12-05T05:38:35.561Z,9.747277
2022-12-05T05:39:35.541Z,9.747364
2022-12-05T05:40:35.560Z,9.747359
2022-12-05T05:41:35.531Z,9.747340
2022-12-05T05:42:35.517Z,9.747278
2022-12-05T05:43:35.512Z,9.747155
2022-12-05T05:44:35.512Z,9.747206
2022-12-05T05:45:35.527Z,9.747147
2022-12-05T05:46:35.604Z,9.747017
2022-12-05T05:47:35.501Z,9.746964
2022-12-05T05:48:35.476Z,9.747074
2022-12-05T05:49:35.463Z,9.747250
2022-12-05T05:50:35.499Z,9.747334
2022-12-05T05:51:35.456Z,9.747366
2022-12-05T05:52:35.447Z,9.747284
2022-12-05T05:53:35.432Z,9.747346
2022-12-05T05:54:35.428Z,9.747346
2022-12-05T05:55:35.444Z,9.747573
2022-12-05T05:56:35.414Z,9.747208
2022-12-05T05:57:35.405Z,9.747308
2022-12-05T05:58:35.402Z,9.747289
2022-12-05T05:59:35.387Z,9.747249
2022-12-05T06:00:35.447Z,9.747270
2022-12-05T06:01:35.374Z,9.747390
2022-12-05T06:02:35.497Z,9.747318
2022-12-05T06:03:35.548Z,9.747353
2022-12-05T06:04:35.357Z,9.747344
2022-12-05T06:05:35.368Z,9.747590
2022-12-05T06:06:35.352Z,9.747485
2022-12-05T06:07:35.381Z,9.747418
2022-12-05T06:08:35.321Z,9.747444
2022-12-05T06:09:35.327Z,9.747416
2022-12-05T06:10:35.330Z,9.747366
2022-12-05T06:11:35.302Z,9.747278
2022-12-05T06:12:35.301Z,9.747258
2022-12-05T06:13:35.284Z,9.747385
2022-12-05T06:14:35.276Z,9.747342
2022-12-05T06:15:35.306Z,9.747485
2022-12-05T06:16:35.302Z,9.747356
2022-12-05T06:17:35.254Z,9.747324
2022-12-05T06:18:35.254Z,9.747404
2022-12-05T06:19:35.241Z,9.747437
2022-12-05T06:20:35.294Z,9.747404
2022-12-05T06:21:35.222Z,9.747312
2022-12-05T06:22:35.211Z,9.747453
2022-12-05T06:23:35.199Z,9.747453
2022-12-05T06:24:35.201Z,9.747415
2022-12-05T06:25:35.221Z,9.747375
2022-12-05T06:26:35.189Z,9.747293
2022-12-05T06:27:35.181Z,9.747330
2022-12-05T06:28:35.210Z,9.747362
2022-12-05T06:29:35.276Z,9.747474
2022-12-05T06:30:35.157Z,9.747544
2022-12-05T06:31:35.253Z,9.747429
2022-12-05T06:32:35.136Z,9.747521
2022-12-05T06:33:35.131Z,9.747551
2022-12-05T06:34:35.127Z,9.747687
2022-12-05T06:35:35.117Z,9.747832
2022-12-05T06:36:35.137Z,9.747896
2022-12-05T06:37:35.107Z,9.747528
2022-12-05T06:38:39.034Z,9.747687
2022-12-05T06:39:37.086Z,9.747526
2022-12-05T06:40:35.078Z,9.747605
2022-12-05T06:42:08.730Z,9.747510
2022-12-05T06:42:35.069Z,9.747289
2022-12-05T06:43:35.059Z,9.747380
2022-12-05T06:44:35.057Z,9.747421
2022-12-05T06:45:35.091Z,9.747371
2022-12-05T06:46:35.055Z,9.747366
2022-12-05T06:47:35.026Z,9.747392
2022-12-05T06:48:35.104Z,9.747501
2022-12-05T06:49:38.110Z,9.747517
2022-12-05T06:50:36.011Z,9.747437
2022-12-05T06:51:35.020Z,9.747623
2022-12-05T06:52:34.976Z,9.747392
2022-12-05T06:53:35.982Z,9.747373
2022-12-05T06:54:34.976Z,9.747268
2022-12-05T06:55:34.969Z,9.747365
2022-12-05T06:56:35.078Z,9.747284
2022-12-05T06:57:34.948Z,9.747286
2022-12-05T06:58:35.939Z,9.747276
2022-12-05T06:59:34.954Z,9.747422
2022-12-05T07:00:34.932Z,9.747357
2022-12-05T07:01:34.976Z,9.747234
2022-12-05T07:02:34.974Z,9.747260
2022-12-05T07:03:34.907Z,9.747430
2022-12-05T07:04:34.890Z,9.747482
2022-12-05T07:05:34.886Z,9.747450
2022-12-05T07:06:34.988Z,9.747334
2022-12-05T07:07:35.028Z,9.747405
2022-12-05T07:08:34.868Z,9.747372
2022-12-05T07:09:34.850Z,9.747268
2022-12-05T07:10:34.847Z,9.747547
2022-12-05T07:11:34.860Z,9.747404
2022-12-05T07:12:34.827Z,9.747474
2022-12-05T07:13:34.886Z,9.747728
2022-12-05T07:14:50.575Z,9.747525
2022-12-05T07:15:36.815Z,9.747418
2022-12-05T07:16:34.912Z,9.747386
2022-12-05T07:17:34.793Z,9.747315
2022-12-05T07:18:34.783Z,9.747294
2022-12-05T07:19:34.786Z,9.747236
2022-12-05T07:21:03.392Z,9.747293
2022-12-05T07:21:36.788Z,9.747457
2022-12-05T07:22:34.773Z,9.747467
2022-12-05T07:23:34.745Z,9.747234
2022-12-05T07:24:34.748Z,9.747270
2022-12-05T07:25:34.745Z,9.747350
2022-12-05T07:26:34.757Z,9.747365
2022-12-05T07:27:34.716Z,9.747348
2022-12-05T07:28:34.714Z,9.747386
2022-12-05T07:29:34.702Z,9.747387
2022-12-05T07:30:34.693Z,9.747349
2022-12-05T07:31:34.754Z,9.747376
2022-12-05T07:32:34.675Z,9.747293
2022-12-05T07:33:34.665Z,9.747287
2022-12-05T07:34:34.676Z,9.747294
2022-12-05T07:35:34.657Z,9.747209
2022-12-05T07:36:34.684Z,9.747391
2022-12-05T07:37:34.655Z,9.747348
2022-12-05T07:38:34.637Z,9.747528
2022-12-05T07:39:34.628Z,9.747818
2022-12-05T07:40:34.619Z,9.747605
2022-12-05T07:41:34.608Z,9.747425
2022-12-05T07:42:35.921Z,9.747341
2022-12-05T07:43:34.589Z,9.747263
2022-12-05T07:44:34.594Z,9.747252
2022-12-05T07:45:34.606Z,9.747412
2022-12-05T07:46:34.604Z,9.747262
2022-12-05T07:47:34.765Z,9.747354
2022-12-05T07:48:34.585Z,9.747554
2022-12-05T07:49:34.558Z,9.747438
2022-12-05T07:50:34.544Z,9.747554
2022-12-05T07:51:34.548Z,9.747519
2022-12-05T07:52:34.557Z,9.747378
2022-12-05T07:53:34.519Z,9.747395
2022-12-05T07:54:34.519Z,9.747362
2022-12-05T07:55:34.499Z,9.747249
2022-12-05T07:56:35.497Z,9.747428
2022-12-05T07:57:34.512Z,9.747405
2022-12-05T07:58:34.482Z,9.747380
2022-12-05T07:59:34.476Z,9.747409
2022-12-05T08:00:34.479Z,9.747450
2022-12-05T08:01:34.528Z,9.747433
2022-12-05T08:02:37.718Z,9.747479
2022-12-05T08:03:35.440Z,9.747352
2022-12-05T08:04:34.435Z,9.747255
2022-12-05T08:05:34.424Z,9.747366
2022-12-05T08:06:35.229Z,9.747353
2022-12-05T08:07:34.484Z,9.747393
2022-12-05T08:08:34.402Z,9.747340
2022-12-05T08:09:34.401Z,9.747322
2022-12-05T08:10:34.397Z,9.747458
2022-12-05T08:11:34.381Z,9.747453
2022-12-05T08:12:34.397Z,9.747393
2022-12-05T08:13:34.380Z,9.747478
2022-12-05T08:14:34.358Z,9.747471
2022-12-05T08:15:34.349Z,9.747416
2022-12-05T08:16:34.390Z,9.747408
2022-12-05T08:17:34.367Z,9.747440
2022-12-05T08:18:34.328Z,9.747480
2022-12-05T08:19:34.325Z,9.747469
2022-12-05T08:20:34.329Z,9.747420
2022-12-05T08:21:34.317Z,9.747381
2022-12-05T08:22:34.327Z,9.747413
2022-12-05T08:23:34.295Z,9.747375
2022-12-05T08:24:34.286Z,9.747316
2022-12-05T08:25:34.268Z,9.747442
2022-12-05T08:26:34.264Z,9.747362
2022-12-05T08:27:34.290Z,9.747472
2022-12-05T08:28:34.246Z,9.747457
2022-12-05T08:29:34.279Z,9.747466
2022-12-05T08:30:34.276Z,9.747442
2022-12-05T08:31:34.269Z,9.747483
2022-12-05T08:32:34.257Z,9.747468
2022-12-05T08:33:34.214Z,9.747471
2022-12-05T08:34:34.209Z,9.747488
2022-12-05T08:35:34.204Z,9.747444
2022-12-05T08:36:34.190Z,9.747287
2022-12-05T08:37:34.224Z,9.747460
2022-12-05T08:38:34.173Z,9.747498
2022-12-05T08:39:38.440Z,9.747456
2022-12-05T08:40:35.162Z,9.747462
2022-12-05T08:41:34.160Z,9.747398
2022-12-05T08:42:34.167Z,9.747369
2022-12-05T08:43:34.142Z,9.747380
2022-12-05T08:44:34.134Z,9.747293
2022-12-05T08:45:34.124Z,9.747387
2022-12-05T08:46:34.182Z,9.747478
2022-12-05T08:47:34.143Z,9.747379
2022-12-05T08:48:34.104Z,9.747440
2022-12-05T08:49:34.099Z,9.747431
2022-12-05T08:50:34.089Z,9.747350
2022-12-05T08:51:34.071Z,9.747342
2022-12-05T08:52:34.089Z,9.747440
2022-12-05T08:53:34.064Z,9.747358
2022-12-05T08:54:34.050Z,9.747343
2022-12-05T08:55:34.156Z,9.747395
2022-12-05T08:56:34.036Z,9.747345
2022-12-05T08:57:34.064Z,9.747354
2022-12-05T08:58:34.023Z,9.747434
2022-12-05T08:59:34.015Z,9.747392
2022-12-05T09:00:35.006Z,9.747498
2022-12-05T09:01:34.119Z,9.747308
2022-12-05T09:02:34.074Z,9.747272
2022-12-05T09:03:33.983Z,9.747299
2022-12-05T09:04:34.009Z,9.747341
2022-12-05T09:05:33.997Z,9.747499
2022-12-05T09:06:33.966Z,9.747536
2022-12-05T09:07:34.039Z,9.747449
2022-12-05T09:08:33.946Z,9.747434
2022-12-05T09:09:33.940Z,9.747451
2022-12-05T09:10:33.943Z,9.747513
2022-12-05T09:11:33.922Z,9.747434
2022-12-05T09:12:33.938Z,9.747418
2022-12-05T09:13:33.914Z,9.747385
2022-12-05T09:14:33.898Z,9.747417
2022-12-05T09:15:33.948Z,9.747423
2022-12-05T09:16:37.875Z,9.747480
2022-12-05T09:17:34.897Z,9.747474
2022-12-05T09:18:33.862Z,9.747426
2022-12-05T09:19:33.859Z,9.747423
2022-12-05T09:20:33.872Z,9.747610
2022-12-05T09:21:33.909Z,9.747600
2022-12-05T09:22:33.863Z,9.747540
2022-12-05T09:23:33.830Z,9.747604
2022-12-05T09:24:33.819Z,9.747628
2022-12-05T09:25:33.824Z,9.747432
2022-12-05T09:26:33.808Z,9.747484
2022-12-05T09:27:33.836Z,9.747490
2022-12-05T09:28:33.796Z,9.747373
2022-12-05T09:29:33.787Z,9.747201
2022-12-05T09:30:33.780Z,9.747443
2022-12-05T09:31:33.870Z,9.747554
2022-12-05T09:32:33.767Z,9.747561
2022-12-05T09:33:33.782Z,9.747400
2022-12-05T09:34:33.748Z,9.747274
2022-12-05T09:35:33.743Z,9.747227
2022-12-05T09:36:33.735Z,9.747494
2022-12-05T09:37:40.901Z,9.747381
2022-12-05T09:38:35.749Z,9.747477
2022-12-05T09:39:33.719Z,9.747550
2022-12-05T09:40:33.738Z,9.747370
2022-12-05T09:41:33.696Z,9.747355
2022-12-05T09:42:33.684Z,9.747505
2022-12-05T09:43:33.720Z,9.747452
2022-12-05T09:44:33.669Z,9.747560
2022-12-05T09:45:33.663Z,9.747526
2022-12-05T09:46:35.755Z,9.747495
2022-12-05T09:47:34.648Z,9.747519
2022-12-05T09:48:33.668Z,9.747367
2022-12-05T09:49:33.634Z,9.747502
2022-12-05T09:50:33.627Z,9.747515
2022-12-05T09:51:33.620Z,9.747599
2022-12-05T09:52:33.615Z,9.747604
2022-12-05T09:53:33.629Z,9.747545
2022-12-05T09:54:33.600Z,9.747439
2022-12-05T09:55:33.583Z,9.747566
2022-12-05T09:56:33.582Z,9.747508
2022-12-05T09:57:34.148Z,9.747497
2022-12-05T09:58:34.603Z,9.747536
2022-12-05T09:59:33.559Z,9.747554
2022-12-05T10:00:33.557Z,9.747540
2022-12-05T10:01:33.601Z,9.747322
2022-12-05T10:02:33.534Z,9.747355
2022-12-05T10:03:33.551Z,9.747508
2022-12-05T10:04:33.668Z,9.747582
2022-12-05T10:05:33.513Z,9.747520
2022-12-05T10:06:33.513Z,9.747354
2022-12-05T10:07:33.549Z,9.747250
2022-12-05T10:08:33.523Z,9.747084
2022-12-05T10:09:33.482Z,9.747266
2022-12-05T10:10:33.471Z,9.747459
2022-12-05T10:11:33.461Z,9.747464
2022-12-05T10:12:33.457Z,9.747390
2022-12-05T10:13:33.472Z,9.747378
2022-12-05T10:14:33.438Z,9.747426
2022-12-05T10:15:33.506Z,9.747435
2022-12-05T10:16:33.529Z,9.747481
2022-12-05T10:17:33.412Z,9.747335
2022-12-05T10:18:33.441Z,9.747295
2022-12-05T10:19:33.414Z,9.747328
2022-12-05T10:20:33.389Z,9.747297
2022-12-05T10:21:33.385Z,9.747402
2022-12-05T10:22:33.391Z,9.747399
2022-12-05T10:23:59.478Z,9.747354
2022-12-05T10:24:35.367Z,9.747397
2022-12-05T10:25:33.359Z,9.747318
2022-12-05T10:26:33.348Z,9.747305
2022-12-05T10:27:39.549Z,9.747315
2022-12-05T10:28:35.366Z,9.747342
2022-12-05T10:29:33.326Z,9.747410
2022-12-05T10:30:33.328Z,9.747396
2022-12-05T10:31:33.356Z,9.747420
2022-12-05T10:32:33.305Z,9.747409
2022-12-05T10:33:33.330Z,9.747300
2022-12-05T10:34:33.300Z,9.747367
2022-12-05T10:35:33.283Z,9.747407
2022-12-05T10:36:33.275Z,9.747306
2022-12-05T10:37:33.274Z,9.747318
2022-12-05T10:38:33.269Z,9.747397
2022-12-05T10:39:33.281Z,9.747456
2022-12-05T10:40:33.272Z,9.747383
2022-12-05T10:41:33.238Z,9.747374
2022-12-05T10:42:33.235Z,9.747335
2022-12-05T10:43:33.233Z,9.747305
2022-12-05T10:44:33.236Z,9.747377
2022-12-05T10:45:33.209Z,9.747287
2022-12-05T10:46:33.240Z,9.747253
2022-12-05T10:47:33.193Z,9.747239
2022-12-05T10:48:33.187Z,9.747116
2022-12-05T10:49:33.200Z,9.747293
2022-12-05T10:50:33.172Z,9.747201
2022-12-05T10:51:37.528Z,9.747196
2022-12-05T10:52:34.156Z,9.747254
2022-12-05T10:53:33.147Z,9.747193
2022-12-05T10:54:33.171Z,9.747153
2022-12-05T10:55:33.131Z,9.747388
2022-12-05T10:56:33.123Z,9.747232
2022-12-05T10:57:33.127Z,9.747242
2022-12-05T10:58:33.114Z,9.747370
2022-12-05T10:59:33.131Z,9.747350
2022-12-05T11:00:33.098Z,9.747372
2022-12-05T11:01:33.125Z,9.747360
2022-12-05T11:02:33.085Z,9.747444
2022-12-05T11:03:33.074Z,9.747346
2022-12-05T11:04:33.099Z,9.747396
2022-12-05T11:05:33.126Z,9.747517
2022-12-05T11:06:33.053Z,9.747375
2022-12-05T11:07:33.093Z,9.747231
2022-12-05T11:09:02.710Z,9.747186
2022-12-05T11:09:35.054Z,9.747218
2022-12-05T11:10:33.018Z,9.747272
2022-12-05T11:11:33.008Z,9.747312
2022-12-05T11:12:33.008Z,9.747393
2022-12-05T11:13:33.003Z,9.747477
2022-12-05T11:14:33.023Z,9.747362
2022-12-05T11:15:32.985Z,9.747395
2022-12-05T11:16:33.162Z,9.747388
2022-12-05T11:17:32.966Z,9.747378
2022-12-05T11:18:32.964Z,9.747376
2022-12-05T11:19:32.995Z,9.747408
2022-12-05T11:20:32.960Z,9.747262
2022-12-05T11:21:32.940Z,9.747289
2022-12-05T11:22:32.936Z,9.747272
2022-12-05T11:23:32.929Z,9.747251
2022-12-05T11:24:32.947Z,9.747339
2022-12-05T11:25:32.914Z,9.747285
2022-12-05T11:26:32.907Z,9.747328
2022-12-05T11:27:32.893Z,9.747299
2022-12-05T11:28:32.961Z,9.747307
2022-12-05T11:29:32.876Z,9.747384
2022-12-05T11:30:32.896Z,9.747416
2022-12-05T11:31:32.948Z,9.747460
2022-12-05T11:32:32.849Z,9.747311
2022-12-05T11:33:32.850Z,9.747386
2022-12-05T11:34:32.869Z,9.747434
2022-12-05T11:35:32.833Z,9.747247
2022-12-05T11:36:32.823Z,9.747398
2022-12-05T11:37:32.818Z,9.747363
2022-12-05T11:38:32.816Z,9.747278
2022-12-05T11:39:33.862Z,9.747478
2022-12-05T11:40:37.759Z,9.747471
2022-12-05T11:41:34.788Z,9.747347
2022-12-05T11:42:32.779Z,9.747505
2022-12-05T11:43:32.768Z,9.747490
2022-12-05T11:44:32.770Z,9.747375